createdAt,value
2022-08-01T00:01:32.598Z,19.36
2022-08-01T00:04:00.639Z,19.42
2022-08-01T00:06:29.876Z,19.43
2022-08-01T00:08:58.166Z,19.43
2022-08-01T00:11:26.243Z,19.36
2022-08-01T00:13:54.668Z,19.42
2022-08-01T00:16:23.689Z,19.45
2022-08-01T00:18:53.346Z,19.48
2022-08-01T00:21:21.530Z,19.51
2022-08-01T00:23:49.852Z,19.51
2022-08-01T00:26:17.895Z,19.43
2022-08-01T00:28:45.864Z,19.46
2022-08-01T00:31:13.887Z,19.39
2022-08-01T00:33:41.838Z,19.36
2022-08-01T00:36:11.268Z,19.15
2022-08-01T00:38:39.732Z,18.88
2022-08-01T00:41:07.770Z,18.68
2022-08-01T00:43:35.750Z,18.43
2022-08-01T00:46:03.781Z,18.27
2022-08-01T00:48:31.819Z,18.10
2022-08-01T00:51:00.009Z,18.08
2022-08-01T00:53:51.428Z,18.04
2022-08-01T00:56:17.499Z,17.91
2022-08-01T00:58:45.803Z,17.93
2022-08-01T01:01:14.100Z,17.86
2022-08-01T01:03:58.523Z,17.83
2022-08-01T01:06:46.815Z,17.85
2022-08-01T01:09:26.049Z,17.72
2022-08-01T01:12:09.802Z,17.72
2022-08-01T01:14:45.789Z,17.71
2022-08-01T01:17:17.127Z,17.77
2022-08-01T01:20:01.760Z,17.72
2022-08-01T01:22:48.378Z,17.74
2022-08-01T01:25:37.799Z,17.71
2022-08-01T01:28:12.364Z,17.71
2022-08-01T01:30:45.049Z,17.64
2022-08-01T01:33:15.936Z,17.65
2022-08-01T01:35:49.636Z,17.57
2022-08-01T01:38:22.089Z,17.53
2022-08-01T01:40:52.622Z,17.64
2022-08-01T01:43:22.560Z,17.57
2022-08-01T01:45:59.224Z,17.58
2022-08-01T01:48:28.777Z,17.70
2022-08-01T01:50:57.749Z,17.75
2022-08-01T01:53:27.247Z,17.83
2022-08-01T01:55:57.848Z,17.90
2022-08-01T01:58:28.470Z,18.00
2022-08-01T02:01:02.823Z,18.10
2022-08-01T02:03:32.567Z,18.18
2022-08-01T02:06:03.794Z,18.22
2022-08-01T02:08:33.157Z,18.19
2022-08-01T02:11:21.839Z,18.18
2022-08-01T02:13:55.880Z,18.16
2022-08-01T02:16:28.340Z,18.17
2022-08-01T02:18:57.056Z,18.19
2022-08-01T02:21:29.825Z,18.18
2022-08-01T02:24:05.991Z,18.19
2022-08-01T02:26:35.858Z,18.19
2022-08-01T02:29:09.674Z,18.20
2022-08-01T02:31:46.025Z,18.21
2022-08-01T02:34:18.973Z,18.25
2022-08-01T02:36:48.703Z,18.20
2022-08-01T02:39:19.783Z,18.10
2022-08-01T02:41:52.186Z,18.01
2022-08-01T02:44:26.070Z,17.83
2022-08-01T02:47:03.248Z,17.67
2022-08-01T02:49:35.106Z,17.64
2022-08-01T02:52:06.070Z,17.54
2022-08-01T02:54:35.544Z,17.43
2022-08-01T02:57:06.658Z,17.37
2022-08-01T02:59:38.378Z,17.23
2022-08-01T03:02:11.935Z,17.16
2022-08-01T03:04:42.740Z,17.07
2022-08-01T03:07:12.981Z,17.06
2022-08-01T03:09:44.468Z,17.04
2022-08-01T03:12:16.583Z,17.01
2022-08-01T03:14:46.410Z,16.94
2022-08-01T03:17:18.766Z,16.91
2022-08-01T03:19:48.600Z,16.79
2022-08-01T03:22:18.485Z,16.75
2022-08-01T03:24:51.074Z,16.69
2022-08-01T03:27:21.262Z,16.69
2022-08-01T03:29:50.302Z,16.61
2022-08-01T03:32:21.774Z,16.57
2022-08-01T03:34:50.177Z,16.59
2022-08-01T03:37:26.330Z,16.59
2022-08-01T03:39:59.690Z,16.60
2022-08-01T03:42:34.146Z,16.67
2022-08-01T03:45:13.290Z,16.74
2022-08-01T03:47:46.171Z,16.78
2022-08-01T03:50:17.671Z,16.76
2022-08-01T03:52:48.745Z,16.71
2022-08-01T03:55:18.423Z,16.79
2022-08-01T03:57:49.236Z,16.72
2022-08-01T04:00:19.454Z,16.71
2022-08-01T04:02:49.759Z,16.67
2022-08-01T04:05:18.461Z,16.59
2022-08-01T04:07:48.927Z,16.48
2022-08-01T04:10:16.984Z,16.45
2022-08-01T04:12:45.066Z,16.48
2022-08-01T04:15:13.294Z,16.53
2022-08-01T04:17:41.320Z,16.54
2022-08-01T04:20:12.632Z,16.55
2022-08-01T04:22:41.413Z,16.57
2022-08-01T04:25:17.463Z,16.57
2022-08-01T04:27:51.233Z,16.63
2022-08-01T04:30:22.767Z,16.65
2022-08-01T04:32:52.663Z,16.67
2022-08-01T04:36:01.737Z,16.78
2022-08-01T04:38:15.254Z,16.77
2022-08-01T04:40:43.579Z,16.87
2022-08-01T04:43:12.433Z,16.92
2022-08-01T04:45:44.506Z,16.94
2022-08-01T04:48:14.711Z,17.04
2022-08-01T04:50:44.635Z,17.14
2022-08-01T04:53:17.806Z,17.24
2022-08-01T04:55:47.715Z,17.31
2022-08-01T04:58:18.627Z,17.39
2022-08-01T05:00:47.689Z,17.49
2022-08-01T05:03:16.179Z,17.56
2022-08-01T05:05:45.555Z,17.56
2022-08-01T05:08:13.554Z,17.64
2022-08-01T05:10:41.570Z,17.76
2022-08-01T05:13:09.929Z,17.85
2022-08-01T05:15:38.713Z,18.00
2022-08-01T05:18:08.565Z,18.08
2022-08-01T05:20:36.835Z,18.09
2022-08-01T05:23:06.538Z,18.11
2022-08-01T05:25:56.186Z,18.18
2022-08-01T05:28:26.204Z,18.32
2022-08-01T05:30:55.850Z,18.47
2022-08-01T05:33:24.177Z,18.65
2022-08-01T05:35:52.325Z,18.77
2022-08-01T05:38:21.760Z,18.90
2022-08-01T05:40:49.920Z,19.06
2022-08-01T05:43:18.208Z,19.13
2022-08-01T05:45:47.089Z,19.29
2022-08-01T05:48:15.353Z,19.32
2022-08-01T05:50:43.452Z,19.38
2022-08-01T05:53:11.523Z,19.41
2022-08-01T05:55:41.146Z,19.40
2022-08-01T05:58:09.193Z,19.54
2022-08-01T06:00:40.692Z,19.66
2022-08-01T06:03:09.030Z,19.80
2022-08-01T06:05:37.057Z,19.88
2022-08-01T06:08:05.541Z,20.02
2022-08-01T06:10:33.897Z,20.05
2022-08-01T06:13:04.256Z,20.11
2022-08-01T06:15:32.313Z,20.21
2022-08-01T06:18:00.758Z,20.33
2022-08-01T06:20:28.835Z,20.27
2022-08-01T06:22:56.876Z,20.29
2022-08-01T06:25:28.049Z,20.22
2022-08-01T06:27:56.050Z,20.20
2022-08-01T06:30:25.872Z,20.19
2022-08-01T06:32:54.077Z,20.30
2022-08-01T06:35:22.214Z,20.23
2022-08-01T06:37:50.268Z,20.21
2022-08-01T06:40:18.953Z,20.25
2022-08-01T06:42:47.693Z,20.28
2022-08-01T06:45:16.662Z,20.45
2022-08-01T06:47:50.779Z,20.61
2022-08-01T06:50:22.023Z,20.65
2022-08-01T06:52:50.000Z,20.61
2022-08-01T06:55:17.972Z,20.65
2022-08-01T06:57:50.188Z,20.67
2022-08-01T07:00:23.318Z,20.70
2022-08-01T07:02:53.555Z,20.69
2022-08-01T07:05:22.132Z,20.77
2022-08-01T07:07:50.221Z,20.82
2022-08-01T07:10:19.378Z,20.85
2022-08-01T07:12:47.415Z,21.00
2022-08-01T07:15:16.622Z,20.88
2022-08-01T07:17:45.472Z,21.02
2022-08-01T07:20:16.408Z,21.09
2022-08-01T07:22:45.402Z,20.98
2022-08-01T07:25:16.251Z,20.92
2022-08-01T07:27:44.505Z,21.06
2022-08-01T07:30:13.105Z,21.10
2022-08-01T07:32:42.456Z,21.21
2022-08-01T07:35:11.246Z,21.50
2022-08-01T07:37:48.014Z,21.55
2022-08-01T07:40:18.920Z,21.53
2022-08-01T07:42:47.456Z,21.54
2022-08-01T07:45:16.532Z,21.65
2022-08-01T07:47:44.997Z,21.54
2022-08-01T07:50:14.156Z,21.48
2022-08-01T07:52:44.296Z,21.65
2022-08-01T07:55:16.538Z,21.55
2022-08-01T07:57:44.948Z,21.70
2022-08-01T08:00:14.231Z,21.76
2022-08-01T08:02:42.655Z,21.81
2022-08-01T08:05:11.751Z,21.71
2022-08-01T08:07:40.526Z,21.70
2022-08-01T08:10:10.882Z,21.68
2022-08-01T08:12:39.071Z,21.78
2022-08-01T08:15:07.873Z,21.89
2022-08-01T08:17:36.846Z,21.91
2022-08-01T08:20:09.030Z,21.93
2022-08-01T08:22:38.619Z,21.98
2022-08-01T08:25:09.383Z,21.98
2022-08-01T08:27:37.973Z,21.79
2022-08-01T08:30:08.798Z,21.82
2022-08-01T08:32:37.662Z,21.83
2022-08-01T08:35:07.417Z,21.98
2022-08-01T08:37:39.058Z,22.21
2022-08-01T08:40:13.278Z,22.21
2022-08-01T08:42:42.877Z,22.36
2022-08-01T08:45:12.586Z,22.35
2022-08-01T08:47:44.087Z,22.41
2022-08-01T08:50:12.973Z,22.43
2022-08-01T08:52:42.312Z,22.43
2022-08-01T08:55:15.596Z,22.50
2022-08-01T08:57:45.782Z,22.65
2022-08-01T09:00:17.223Z,22.93
2022-08-01T09:02:47.529Z,22.99
2022-08-01T09:05:19.424Z,22.86
2022-08-01T09:07:48.089Z,22.87
2022-08-01T09:10:17.487Z,22.88
2022-08-01T09:13:07.802Z,22.95
2022-08-01T09:15:47.009Z,23.06
2022-08-01T09:18:34.865Z,22.93
2022-08-01T09:21:11.856Z,22.90
2022-08-01T09:23:54.360Z,22.80
2022-08-01T09:26:32.479Z,23.12
2022-08-01T09:29:05.622Z,22.95
2022-08-01T09:31:42.299Z,22.93
2022-08-01T09:34:19.743Z,23.06
2022-08-01T09:36:54.259Z,23.31
2022-08-01T09:39:24.092Z,23.65
2022-08-01T09:41:55.003Z,23.71
2022-08-01T09:44:42.438Z,23.84
2022-08-01T09:47:15.408Z,23.69
2022-08-01T09:49:51.821Z,23.68
2022-08-01T09:52:26.066Z,23.37
2022-08-01T09:54:58.468Z,23.44
2022-08-01T09:57:28.925Z,23.50
2022-08-01T10:00:00.405Z,23.48
2022-08-01T10:02:31.700Z,23.57
2022-08-01T10:05:03.801Z,23.53
2022-08-01T10:07:42.764Z,23.67
2022-08-01T10:10:14.455Z,23.58
2022-08-01T10:12:45.925Z,23.62
2022-08-01T10:15:18.495Z,23.83
2022-08-01T10:17:57.115Z,23.89
2022-08-01T10:20:30.191Z,23.99
2022-08-01T10:23:02.127Z,23.91
2022-08-01T10:25:42.469Z,23.79
2022-08-01T10:28:17.840Z,23.95
2022-08-01T10:30:50.233Z,23.87
2022-08-01T10:33:50.531Z,23.81
2022-08-01T10:36:08.564Z,24.10
2022-08-01T10:38:37.524Z,24.39
2022-08-01T10:41:08.677Z,24.39
2022-08-01T10:43:38.777Z,24.21
2022-08-01T10:46:07.324Z,24.40
2022-08-01T10:48:45.489Z,24.41
2022-08-01T10:51:18.461Z,24.67
2022-08-01T10:53:54.373Z,24.71
2022-08-01T10:56:26.888Z,24.92
2022-08-01T10:59:06.126Z,25.18
2022-08-01T11:01:37.363Z,25.32
2022-08-01T11:04:13.924Z,25.27
2022-08-01T11:07:13.088Z,25.92
2022-08-01T11:09:47.061Z,25.94
2022-08-01T11:12:24.626Z,25.34
2022-08-01T11:15:32.211Z,25.45
2022-08-01T11:18:02.546Z,26.19
2022-08-01T11:20:34.171Z,26.11
2022-08-01T11:23:18.235Z,25.97
2022-08-01T11:26:13.007Z,26.18
2022-08-01T11:28:59.439Z,26.32
2022-08-01T11:31:37.283Z,26.44
2022-08-01T11:34:06.019Z,26.77
2022-08-01T11:36:57.770Z,26.82
2022-08-01T11:39:22.240Z,27.02
2022-08-01T11:41:50.805Z,27.32
2022-08-01T11:44:26.662Z,27.24
2022-08-01T11:47:01.470Z,27.16
2022-08-01T11:49:58.871Z,27.02
2022-08-01T11:52:28.946Z,27.00
2022-08-01T11:54:58.504Z,26.60
2022-08-01T11:57:34.060Z,26.67
2022-08-01T12:00:08.585Z,26.99
2022-08-01T12:02:38.532Z,26.82
2022-08-01T12:05:11.956Z,26.71
2022-08-01T12:07:43.062Z,27.56
2022-08-01T12:10:13.220Z,27.45
2022-08-01T12:12:47.511Z,26.93
2022-08-01T12:15:15.746Z,26.64
2022-08-01T12:17:59.141Z,27.02
2022-08-01T12:20:31.612Z,27.31
2022-08-01T12:23:01.997Z,27.26
2022-08-01T12:25:30.383Z,27.20
2022-08-01T12:28:03.538Z,27.68
2022-08-01T12:30:36.132Z,27.55
2022-08-01T12:33:06.887Z,27.84
2022-08-01T12:35:35.643Z,28.41
2022-08-01T12:38:05.804Z,28.52
2022-08-01T12:40:36.018Z,28.51
2022-08-01T12:43:05.721Z,28.52
2022-08-01T12:45:40.611Z,27.86
2022-08-01T12:48:23.836Z,27.87
2022-08-01T12:50:53.653Z,28.75
2022-08-01T12:53:22.651Z,28.43
2022-08-01T12:55:59.376Z,27.98
2022-08-01T12:58:33.888Z,28.10
2022-08-01T13:01:06.673Z,28.13
2022-08-01T13:03:36.392Z,27.88
2022-08-01T13:06:13.487Z,28.18
2022-08-01T13:08:41.705Z,28.11
2022-08-01T13:11:11.172Z,28.03
2022-08-01T13:13:44.280Z,28.37
2022-08-01T13:16:16.249Z,28.20
2022-08-01T13:18:57.366Z,28.43
2022-08-01T13:21:26.938Z,28.16
2022-08-01T13:24:08.336Z,28.37
2022-08-01T13:26:43.913Z,28.73
2022-08-01T13:29:14.266Z,28.49
2022-08-01T13:31:48.080Z,28.25
2022-08-01T13:34:18.649Z,27.77
2022-08-01T13:36:49.632Z,28.34
2022-08-01T13:39:35.464Z,28.54
2022-08-01T13:42:03.815Z,28.79
2022-08-01T13:44:32.273Z,28.93
2022-08-01T13:47:00.754Z,28.89
2022-08-01T13:49:36.406Z,28.49
2022-08-01T13:52:08.408Z,28.63
2022-08-01T13:54:37.324Z,28.48
2022-08-01T13:57:06.156Z,28.39
2022-08-01T13:59:34.189Z,28.77
2022-08-01T14:02:02.216Z,28.46
2022-08-01T14:04:31.531Z,28.34
2022-08-01T14:07:02.923Z,28.97
2022-08-01T14:09:34.390Z,28.92
2022-08-01T14:12:02.435Z,29.56
2022-08-01T14:14:31.296Z,29.55
2022-08-01T14:16:59.418Z,29.48
2022-08-01T14:19:38.777Z,29.34
2022-08-01T14:22:09.368Z,29.28
2022-08-01T14:24:38.908Z,29.12
2022-08-01T14:27:07.126Z,28.73
2022-08-01T14:30:01.157Z,28.48
2022-08-01T14:32:25.944Z,28.61
2022-08-01T14:34:57.112Z,28.65
2022-08-01T14:37:28.869Z,28.67
2022-08-01T14:39:58.975Z,28.61
2022-08-01T14:42:27.600Z,28.53
2022-08-01T14:44:55.581Z,28.17
2022-08-01T14:47:24.458Z,27.93
2022-08-01T14:49:52.976Z,28.13
2022-08-01T14:52:22.469Z,27.94
2022-08-01T14:54:51.859Z,28.57
2022-08-01T14:57:20.231Z,29.17
2022-08-01T14:59:49.934Z,28.60
2022-08-01T15:02:18.377Z,27.67
2022-08-01T15:04:47.022Z,27.67
2022-08-01T15:07:15.978Z,27.14
2022-08-01T15:09:44.809Z,26.95
2022-08-01T15:12:14.321Z,26.78
2022-08-01T15:14:52.059Z,27.42
2022-08-01T15:17:22.519Z,27.89
2022-08-01T15:19:53.933Z,28.72
2022-08-01T15:22:23.360Z,28.87
2022-08-01T15:24:57.114Z,29.03
2022-08-01T15:27:27.788Z,29.04
2022-08-01T15:29:58.282Z,28.90
2022-08-01T15:32:26.496Z,28.51
2022-08-01T15:34:55.248Z,28.55
2022-08-01T15:37:23.214Z,28.16
2022-08-01T15:39:54.713Z,27.76
2022-08-01T15:42:27.266Z,27.56
2022-08-01T15:44:55.506Z,27.67
2022-08-01T15:47:24.926Z,27.84
2022-08-01T15:49:53.384Z,27.90
2022-08-01T15:52:23.040Z,27.52
2022-08-01T15:54:51.422Z,27.51
2022-08-01T15:57:19.903Z,27.99
2022-08-01T15:59:49.313Z,28.14
2022-08-01T16:02:17.431Z,28.27
2022-08-01T16:04:45.584Z,27.95
2022-08-01T16:07:13.565Z,27.45
2022-08-01T16:09:41.626Z,27.09
2022-08-01T16:12:11.095Z,26.42
2022-08-01T16:14:39.053Z,26.17
2022-08-01T16:17:08.491Z,25.97
2022-08-01T16:19:36.517Z,25.79
2022-08-01T16:22:04.997Z,25.67
2022-08-01T16:24:33.473Z,25.60
2022-08-01T16:27:01.508Z,25.90
2022-08-01T16:29:31.704Z,26.27
2022-08-01T16:32:15.798Z,26.59
2022-08-01T16:34:50.214Z,26.54
2022-08-01T16:37:18.315Z,26.32
2022-08-01T16:39:47.658Z,25.99
2022-08-01T16:42:16.077Z,25.90
2022-08-01T16:44:45.101Z,25.98
2022-08-01T16:49:59.543Z,25.88
2022-08-01T16:52:28.533Z,25.83
2022-08-01T16:54:59.120Z,25.74
2022-08-01T16:57:27.219Z,25.59
2022-08-01T16:59:55.465Z,25.67
2022-08-01T17:02:24.874Z,25.53
2022-08-01T17:05:07.045Z,25.32
2022-08-01T17:07:38.272Z,25.27
2022-08-01T17:10:07.824Z,25.18
2022-08-01T17:12:36.575Z,25.20
2022-08-01T17:15:05.502Z,25.12
2022-08-01T17:17:33.583Z,25.21
2022-08-01T17:20:01.673Z,25.39
2022-08-01T17:22:29.763Z,25.41
2022-08-01T17:24:59.212Z,25.43
2022-08-01T17:27:29.980Z,25.33
2022-08-01T17:29:57.979Z,25.41
2022-08-01T17:32:25.994Z,25.29
2022-08-01T17:34:54.035Z,25.16
2022-08-01T17:37:22.064Z,25.17
2022-08-01T17:39:50.101Z,25.06
2022-08-01T17:42:19.522Z,24.90
2022-08-01T17:44:49.088Z,24.69
2022-08-01T17:47:48.041Z,24.67
2022-08-01T17:50:14.238Z,24.59
2022-08-01T17:52:42.258Z,24.48
2022-08-01T17:55:54.465Z,24.40
2022-08-01T17:58:00.398Z,24.30
2022-08-01T18:00:28.585Z,24.25
2022-08-01T18:02:56.533Z,24.22
2022-08-01T18:05:36.861Z,24.25
2022-08-01T18:08:06.681Z,24.28
2022-08-01T18:10:34.996Z,24.26
2022-08-01T18:13:09.672Z,24.22
2022-08-01T18:15:38.732Z,24.31
2022-08-01T18:18:07.112Z,24.36
2022-08-01T18:20:35.334Z,24.36
2022-08-01T18:23:08.881Z,24.34
2022-08-01T18:25:37.471Z,24.19
2022-08-01T18:28:29.390Z,24.25
2022-08-01T18:30:55.317Z,24.29
2022-08-01T18:33:23.564Z,24.19
2022-08-01T18:35:53.984Z,24.15
2022-08-01T18:38:24.192Z,24.12
2022-08-01T18:40:52.816Z,23.85
2022-08-01T18:43:20.854Z,23.66
2022-08-01T18:45:48.905Z,23.58
2022-08-01T18:48:18.327Z,23.57
2022-08-01T18:50:47.586Z,23.51
2022-08-01T18:53:15.607Z,23.51
2022-08-01T18:55:43.918Z,23.31
2022-08-01T18:58:11.927Z,23.26
2022-08-01T19:00:40.551Z,23.25
2022-08-01T19:03:08.875Z,23.17
2022-08-01T19:05:38.347Z,23.12
2022-08-01T19:08:08.221Z,23.17
2022-08-01T19:10:36.753Z,23.05
2022-08-01T19:13:06.145Z,23.06
2022-08-01T19:15:34.209Z,23.00
2022-08-01T19:18:03.153Z,23.02
2022-08-01T19:20:31.889Z,22.93
2022-08-01T19:23:21.331Z,22.85
2022-08-01T19:25:55.703Z,22.88
2022-08-01T19:28:26.040Z,22.77
2022-08-01T19:30:55.433Z,22.66
2022-08-01T19:33:23.657Z,22.58
2022-08-01T19:35:53.986Z,22.44
2022-08-01T19:38:23.861Z,22.34
2022-08-01T19:40:52.263Z,22.32
2022-08-01T19:43:22.682Z,22.15
2022-08-01T19:45:51.511Z,22.13
2022-08-01T19:48:20.148Z,22.13
2022-08-01T19:50:50.592Z,22.08
2022-08-01T19:53:24.086Z,22.05
2022-08-01T19:55:54.324Z,22.03
2022-08-01T19:58:27.284Z,22.03
2022-08-01T20:00:56.804Z,21.91
2022-08-01T20:03:24.953Z,21.88
2022-08-01T20:05:53.250Z,21.74
2022-08-01T20:08:22.061Z,21.79
2022-08-01T20:10:50.092Z,21.88
2022-08-01T20:13:20.291Z,21.82
2022-08-01T20:15:48.711Z,21.66
2022-08-01T20:18:16.649Z,21.69
2022-08-01T20:20:46.306Z,21.62
2022-08-01T20:23:18.739Z,21.58
2022-08-01T20:25:49.457Z,21.50
2022-08-01T20:28:22.964Z,21.55
2022-08-01T20:30:55.236Z,21.45
2022-08-01T20:33:23.396Z,21.43
2022-08-01T20:35:54.043Z,21.51
2022-08-01T20:38:24.135Z,21.51
2022-08-01T20:40:53.902Z,21.50
2022-08-01T20:43:24.236Z,21.36
2022-08-01T20:45:52.510Z,21.44
2022-08-01T20:48:21.344Z,21.50
2022-08-01T20:51:10.560Z,21.41
2022-08-01T20:53:42.014Z,21.34
2022-08-01T20:56:15.916Z,21.32
2022-08-01T20:59:39.887Z,21.32
2022-08-01T21:02:09.707Z,21.35
2022-08-01T21:04:53.653Z,21.27
2022-08-01T21:07:26.854Z,21.27
2022-08-01T21:10:00.152Z,21.26
2022-08-01T21:12:33.511Z,21.10
2022-08-01T21:15:03.140Z,21.00
2022-08-01T21:17:42.299Z,20.86
2022-08-01T21:20:13.596Z,20.95
2022-08-01T21:22:53.256Z,20.86
2022-08-01T21:25:31.436Z,20.94
2022-08-01T21:28:01.274Z,20.88
2022-08-01T21:30:31.809Z,20.66
2022-08-01T21:33:00.567Z,20.82
2022-08-01T21:35:28.687Z,20.81
2022-08-01T21:38:00.087Z,20.78
2022-08-01T21:40:28.127Z,20.89
2022-08-01T21:42:56.347Z,20.75
2022-08-01T21:45:25.880Z,20.83
2022-08-01T21:47:56.665Z,20.79
2022-08-01T21:50:25.062Z,20.86
2022-08-01T21:53:05.708Z,20.80
2022-08-01T21:55:38.665Z,20.74
2022-08-01T21:58:33.241Z,20.69
2022-08-01T22:01:08.214Z,20.55
2022-08-01T22:03:46.568Z,20.48
2022-08-01T22:06:16.002Z,20.47
2022-08-01T22:08:50.685Z,20.45
2022-08-01T22:11:22.484Z,20.36
2022-08-01T22:13:55.216Z,20.30
2022-08-01T22:16:24.393Z,20.22
2022-08-01T22:18:54.518Z,20.29
2022-08-01T22:21:22.801Z,20.34
2022-08-01T22:23:52.848Z,20.31
2022-08-01T22:26:27.097Z,20.33
2022-08-01T22:28:57.176Z,20.31
2022-08-01T22:31:25.533Z,20.33
2022-08-01T22:33:55.493Z,20.38
2022-08-01T22:36:24.043Z,20.34
2022-08-01T22:38:52.128Z,20.27
2022-08-01T22:41:24.082Z,20.21
2022-08-01T22:43:58.651Z,20.12
2022-08-01T22:46:32.929Z,20.03
2022-08-01T22:49:09.785Z,19.89
2022-08-01T22:51:55.347Z,19.98
2022-08-01T22:54:31.040Z,19.77
2022-08-01T22:57:04.715Z,19.86
2022-08-01T22:59:47.460Z,19.88
2022-08-01T23:02:17.791Z,19.83
2022-08-01T23:04:49.928Z,19.77
2022-08-01T23:07:21.969Z,19.75
2022-08-01T23:09:53.838Z,19.64
2022-08-01T23:12:25.322Z,19.72
2022-08-01T23:14:55.122Z,19.69
2022-08-01T23:17:27.040Z,19.71
2022-08-01T23:19:59.514Z,19.67
2022-08-01T23:22:31.901Z,19.72
2022-08-01T23:25:05.199Z,19.76
2022-08-01T23:27:54.229Z,19.76
2022-08-01T23:30:26.880Z,19.75
2022-08-01T23:32:55.297Z,19.73
2022-08-01T23:35:25.307Z,19.67
2022-08-01T23:37:53.575Z,19.69
2022-08-01T23:40:25.099Z,19.62
2022-08-01T23:42:54.748Z,19.73
2022-08-01T23:45:23.288Z,19.75
2022-08-01T23:47:51.785Z,19.67
2022-08-01T23:50:21.838Z,19.73
2022-08-01T23:52:52.592Z,19.85
2022-08-01T23:55:29.812Z,19.89
2022-08-01T23:58:06.620Z,19.89
